logo
Search for airport 
image banner adimage banner adimage banner ad
image banner ad

EDGRO - Gronenfelde

Located in Frankfurt/Oder, Germany

ICAO - ED1477, IATA -

Data provided by Airmate  

General information

Coordinates: N52°21'51" E14°29'40"
Elevation is 212 feet MSL.
 
View others Airports in Brandenburg

Operational data

Special qualification required
Current time UTC:
Current local time:
Weather at : EDDB - Berlin Brandenburg ( 67 km )
METAR: EDDB 171250Z AUTO 25012KT 220V290 9999 FEW042 24/14 Q1019 NOSIG
TAF: TAF EDDB 171100Z 1712/1812 25011KT 9999 SCT035 BECMG 1717/1720 29004KT
View NOTAMs / SUP AIP / TFR affecting this airport [VIEW]
Communications frequencies: [VIEW]

Runways:

RWY identifierQFULength (ft)Width (ft)SurfaceLDA (ft)
12117°160866GRASS
30297°160866GRASS

Airport contact information

Address: Frankfurt/Oder Germany

Satellite view of EDGRO